Aeroporto :
LOGIN :

Iscrizione | Disclaimer

   EN    FR    IT 

 










Sommario :    VFR   VFR Marginale   IFR   IFR Intensivo   IFR Molto Intensivo
Visibilità : 
Base nubi : 
>= 8 km
>= 3000ft
5 / 8 km
1000 / 3000 ft
1500m / 5 km
500 / 1000 ft
800 / 1500m
200 / 500 ft
< 800m
< 200 ft
Simboli :   Temporali  Nebbia  Neve Forte  Precipitazioni Forti  Vento > 20 kt
SIGMETs :   Varie  Temporali  Ghiacco  Turbolenza  Onda orograficha  Ceneri Vulcaniche






- Altitudine del aeroporto : 160 ft
- Codice IATA : FMO


EDDG - Münster Osnabrück Int.

ULTIMO METAR :
  • 151720Z VRB02KT CAVOK 05/03 Q1002 NOSIG

METARs OBSOLETI :
  • 151650Z VRB02KT CAVOK 05/03 Q1002 NOSIG
  • 151620Z VRB02KT CAVOK 05/03 Q1002 NOSIG
  • 151550Z 10003KT 040V170 CAVOK 06/03 Q1002 NOSIG
  • 151520Z 06003KT 360V120 CAVOK 06/03 Q1001 NOSIG
  • 151450Z 07003KT 010V110 CAVOK 06/03 Q1001 NOSIG

TAF TAF EDDG
Valido dal 15 a 18 ore il 16 a 18 ore UTC


151700Z 1518/1618 VRB03KT 9999 SCT045
BECMG 1521/1524 4500 BR
TEMPO 1600/1608 2500 BCFG
BECMG 1608/1611 8000



MetMap, La meteo Aeronautica in un colpo d'occhio ! - Copyright ORBIFLY Dicembre 2007 - Disclaimer

ORBIFLY MET'MAP TEAM :

Programmazione e sviluppo : Alexandra Zaïnal
Concezione e sviluppo : Baudouin d'Aumeries
Co-Programmazione e sviluppo : Marc-Olivier Méhu
Supporto tecnico e logistico : Manuel Goepfert
Aiuto per la traduzione : Arnaldo La Scala

Contatto : metmap@orbifly.com




FONTI E CREDITI :

   NOAA